Time;durP1;ratioP1;P1;durP2;ratioP2;P2;SDS_P1;SDS_P2;PMS_P1;PMS_P2;Temp;Humidity;BMP_temperature;BMP_pressure;BME280_temperature;BME280_humidity;BME280_pressure;Samples;Min_cycle;Max_cycle;Signal;HPM_P1;HPM_P2
2022/02/15 00:00:54;;;;;;;1.40;1.30;;;6.10;99.90;;;;;;5089945;28;20204;-74
2022/02/15 00:03:21;;;;;;;1.75;1.52;;;6.10;99.90;;;;;;5089186;28;20207;-74
2022/02/15 00:05:49;;;;;;;1.73;1.40;;;6.10;99.90;;;;;;5089361;28;20219;-75
2022/02/15 00:08:15;;;;;;;1.73;1.58;;;6.10;99.90;;;;;;5089794;28;20256;-75
2022/02/15 00:10:45;;;;;;;1.85;1.52;;;6.10;99.90;;;;;;5089647;28;20203;-75
2022/02/15 00:13:12;;;;;;;1.92;1.73;;;6.10;99.90;;;;;;5089248;28;20219;-74
2022/02/15 00:15:39;;;;;;;1.35;1.25;;;6.10;99.90;;;;;;5089069;28;20737;-75
2022/02/15 00:18:05;;;;;;;2.17;1.77;;;6.00;99.90;;;;;;5089513;28;20207;-75
2022/02/15 00:20:32;;;;;;;1.63;1.52;;;6.00;99.90;;;;;;5089348;28;20216;-74
2022/02/15 00:23:00;;;;;;;2.20;2.00;;;5.90;99.90;;;;;;5088459;28;20203;-74
2022/02/15 00:25:27;;;;;;;1.73;1.63;;;5.80;99.90;;;;;;5089129;28;20204;-74
2022/02/15 00:27:54;;;;;;;2.50;1.77;;;5.80;99.90;;;;;;5089071;28;20317;-74
2022/02/15 00:30:21;;;;;;;2.80;2.00;;;5.80;99.90;;;;;;5089401;28;20674;-74
2022/02/15 00:32:48;;;;;;;1.63;1.52;;;5.80;99.90;;;;;;5088483;28;20199;-74
2022/02/15 00:35:15;;;;;;;3.17;1.77;;;5.80;99.90;;;;;;5089063;28;20231;-74
2022/02/15 00:37:42;;;;;;;2.38;1.75;;;5.80;99.90;;;;;;5089044;28;20212;-74
2022/02/15 00:40:11;;;;;;;2.92;2.10;;;5.80;99.90;;;;;;5088980;28;20638;-74
2022/02/15 00:42:39;;;;;;;1.70;1.50;;;5.90;99.90;;;;;;5088766;28;20204;-74
2022/02/15 00:45:07;;;;;;;1.83;1.73;;;5.80;99.90;;;;;;5088689;28;20249;-74
2022/02/15 00:47:34;;;;;;;2.58;1.70;;;5.80;99.90;;;;;;5088782;28;20220;-74
2022/02/15 00:50:01;;;;;;;1.98;1.65;;;5.80;99.90;;;;;;5088862;28;20196;-74
2022/02/15 00:52:28;;;;;;;3.38;2.10;;;5.80;99.90;;;;;;5091047;28;20285;-74
2022/02/15 00:54:55;;;;;;;2.03;1.83;;;5.80;99.90;;;;;;5092623;28;20224;-74
2022/02/15 00:57:23;;;;;;;2.20;2.00;;;5.90;99.90;;;;;;5092394;28;20227;-74
2022/02/15 00:59:50;;;;;;;2.40;1.70;;;5.80;99.90;;;;;;5091505;28;20196;-74
2022/02/15 01:02:17;;;;;;;2.90;2.13;;;5.80;99.90;;;;;;5092152;28;20246;-74
2022/02/15 01:04:44;;;;;;;2.00;1.90;;;5.70;99.90;;;;;;5092070;28;20424;-73
2022/02/15 01:07:11;;;;;;;4.00;2.30;;;5.70;99.90;;;;;;5092811;28;20223;-74
2022/02/15 01:09:39;;;;;;;2.50;2.30;;;5.60;99.90;;;;;;5093339;28;20196;-73
2022/02/15 01:12:07;;;;;;;2.20;1.95;;;5.60;99.90;;;;;;5093096;28;20225;-74
2022/02/15 01:17:03;;;;;;;2.40;2.20;;;5.60;99.90;;;;;;5069317;28;20246;-76
2022/02/15 01:19:30;;;;;;;2.72;1.90;;;5.60;99.90;;;;;;5073633;28;20204;-76
2022/02/15 01:21:56;;;;;;;2.60;2.00;;;5.50;99.90;;;;;;5074412;28;20322;-76
2022/02/15 01:24:23;;;;;;;2.83;1.98;;;5.50;99.90;;;;;;5072923;28;20211;-77
2022/02/15 01:26:50;;;;;;;1.98;1.75;;;5.50;99.90;;;;;;5073276;28;20588;-77
2022/02/15 01:29:17;;;;;;;2.10;1.90;;;5.50;99.90;;;;;;5073532;28;20213;-76
2022/02/15 01:31:43;;;;;;;2.45;1.85;;;5.50;99.90;;;;;;5073402;28;20204;-76
2022/02/15 01:34:12;;;;;;;2.85;2.20;;;5.40;99.90;;;;;;5072802;28;20224;-76
2022/02/15 01:36:39;;;;;;;3.78;2.60;;;5.40;99.90;;;;;;5073388;28;20277;-76
2022/02/15 01:39:06;;;;;;;2.50;2.17;;;5.40;99.90;;;;;;5073398;28;20518;-76
2022/02/15 01:41:32;;;;;;;2.55;1.80;;;5.30;99.90;;;;;;5073033;28;20212;-76
2022/02/15 01:43:59;;;;;;;3.55;2.03;;;5.30;99.90;;;;;;5072383;28;20200;-76
2022/02/15 01:46:26;;;;;;;2.88;2.15;;;5.30;99.90;;;;;;5073626;28;20220;-77
2022/02/15 01:48:53;;;;;;;1.70;1.60;;;5.30;99.90;;;;;;5074677;28;20213;-76
2022/02/15 01:51:22;;;;;;;2.03;1.77;;;5.30;99.90;;;;;;5073484;28;20205;-76
2022/02/15 01:53:49;;;;;;;2.08;1.77;;;5.30;99.90;;;;;;5071588;28;20216;-76
2022/02/15 01:56:16;;;;;;;3.58;1.90;;;5.30;99.90;;;;;;5072294;28;20707;-76
2022/02/15 01:58:43;;;;;;;2.92;1.60;;;5.20;99.90;;;;;;5072427;28;20209;-76
2022/02/15 02:01:09;;;;;;;2.38;2.00;;;5.30;99.90;;;;;;5072089;28;20204;-76
2022/02/15 02:03:36;;;;;;;2.20;1.67;;;5.30;99.90;;;;;;5070999;28;20205;-76
2022/02/15 02:06:02;;;;;;;3.10;1.88;;;5.20;99.90;;;;;;5071176;28;20220;-76
2022/02/15 02:08:33;;;;;;;2.13;1.90;;;5.20;99.90;;;;;;5071657;28;20197;-76
2022/02/15 02:11:01;;;;;;;3.90;2.00;;;5.20;99.90;;;;;;5070510;28;20727;-76
2022/02/15 02:13:28;;;;;;;3.15;2.40;;;5.10;99.90;;;;;;5070899;28;20228;-76
2022/02/15 02:15:55;;;;;;;1.75;1.65;;;5.10;99.90;;;;;;5070799;28;20232;-77
2022/02/15 02:18:22;;;;;;;2.22;2.03;;;5.10;99.90;;;;;;5071547;28;20200;-77
2022/02/15 02:20:49;;;;;;;2.40;2.20;;;5.10;99.90;;;;;;5071199;28;20207;-76
2022/02/15 02:23:20;;;;;;;1.70;1.60;;;5.10;99.90;;;;;;5071069;28;20211;-76
2022/02/15 02:25:47;;;;;;;3.17;1.90;;;5.10;99.90;;;;;;5071353;28;20221;-76
2022/02/15 02:28:14;;;;;;;1.92;1.73;;;5.00;99.90;;;;;;5071873;28;20205;-75
2022/02/15 02:30:40;;;;;;;1.88;1.73;;;5.00;99.90;;;;;;5072841;28;20197;-77
2022/02/15 02:33:07;;;;;;;1.88;1.70;;;5.00;99.90;;;;;;5070863;28;20196;-76
2022/02/15 02:35:35;;;;;;;1.90;1.70;;;4.90;99.90;;;;;;5071566;28;20259;-75
2022/02/15 02:38:02;;;;;;;3.30;1.88;;;4.80;99.90;;;;;;5071306;28;20200;-77
2022/02/15 02:40:30;;;;;;;4.70;2.25;;;4.80;99.90;;;;;;5071018;28;20207;-77
2022/02/15 02:42:57;;;;;;;2.20;2.00;;;4.80;99.90;;;;;;5070650;28;20208;-76
2022/02/15 02:45:24;;;;;;;2.72;1.88;;;4.80;99.90;;;;;;5070895;28;20207;-76
2022/02/15 02:47:52;;;;;;;1.98;1.85;;;4.80;99.90;;;;;;5072517;28;20204;-76
2022/02/15 02:50:21;;;;;;;2.78;2.00;;;4.70;99.90;;;;;;5070639;28;20211;-75
2022/02/15 02:52:48;;;;;;;4.75;1.80;;;4.70;99.90;;;;;;5070430;28;20207;-77
2022/02/15 02:55:15;;;;;;;2.60;2.15;;;4.80;99.90;;;;;;5071106;28;20215;-77
2022/02/15 02:57:43;;;;;;;4.07;2.28;;;4.80;99.90;;;;;;5070929;28;20217;-77
2022/02/15 03:00:13;;;;;;;2.60;1.80;;;4.80;99.90;;;;;;5071651;28;20200;-77
2022/02/15 03:02:40;;;;;;;1.80;1.60;;;4.80;99.90;;;;;;5070782;28;20208;-77
2022/02/15 03:05:07;;;;;;;2.38;1.83;;;4.90;99.90;;;;;;5071664;28;20207;-77
2022/02/15 03:07:35;;;;;;;3.70;2.00;;;4.90;99.90;;;;;;5071266;28;20220;-77
2022/02/15 03:10:01;;;;;;;2.05;1.75;;;4.90;99.90;;;;;;5071701;28;20204;-76
2022/02/15 03:12:28;;;;;;;2.38;2.00;;;5.00;99.90;;;;;;5071667;28;20207;-76
2022/02/15 03:14:56;;;;;;;2.85;2.00;;;5.00;99.90;;;;;;5073164;28;20212;-76
2022/02/15 03:17:23;;;;;;;2.30;2.10;;;5.00;99.90;;;;;;5071615;28;20226;-75
2022/02/15 03:19:51;;;;;;;3.33;2.30;;;5.00;99.90;;;;;;5071509;28;20196;-76
2022/02/15 03:22:18;;;;;;;2.75;1.70;;;5.00;99.90;;;;;;5072080;28;20203;-76
2022/02/15 03:24:46;;;;;;;1.83;1.73;;;5.10;99.90;;;;;;5074907;28;20192;-77
2022/02/15 03:27:12;;;;;;;1.73;1.40;;;5.10;99.90;;;;;;5075219;28;20219;-76
2022/02/15 03:29:39;;;;;;;1.90;1.73;;;5.10;99.90;;;;;;5075812;28;20203;-76
2022/02/15 03:32:08;;;;;;;3.72;1.75;;;5.10;99.90;;;;;;5074391;28;20208;-76
2022/02/15 03:34:35;;;;;;;1.70;1.55;;;5.10;99.90;;;;;;5075077;28;20220;-76
2022/02/15 03:37:02;;;;;;;3.78;1.80;;;5.10;99.90;;;;;;5075776;28;20299;-76
2022/02/15 03:39:28;;;;;;;2.28;1.95;;;5.10;99.90;;;;;;5075057;28;20196;-75
2022/02/15 03:44:39;;;;;;;3.20;1.92;;;5.10;99.90;;;;;;5074696;28;20192;-75
2022/02/15 03:47:09;;;;;;;2.50;1.85;;;5.10;99.90;;;;;;5074727;28;20221;-76
2022/02/15 03:49:36;;;;;;;6.90;1.80;;;5.10;99.90;;;;;;5074187;28;20663;-76
2022/02/15 03:52:03;;;;;;;1.67;1.58;;;5.10;99.90;;;;;;5073843;28;20203;-74
2022/02/15 03:54:30;;;;;;;4.00;1.90;;;5.10;99.90;;;;;;5073852;28;20228;-75
2022/02/15 03:56:57;;;;;;;2.30;1.70;;;5.00;99.90;;;;;;5074166;28;20416;-76
2022/02/15 03:59:24;;;;;;;2.20;1.80;;;5.00;99.90;;;;;;5074212;28;20675;-76
2022/02/15 04:01:51;;;;;;;3.28;1.70;;;5.00;99.90;;;;;;5073896;28;20228;-76
2022/02/15 04:04:19;;;;;;;1.98;1.77;;;5.10;99.90;;;;;;5073661;28;20258;-76
2022/02/15 04:06:46;;;;;;;2.20;2.00;;;5.10;99.90;;;;;;5073612;28;20610;-76
2022/02/15 04:09:12;;;;;;;3.78;2.55;;;5.10;99.90;;;;;;5073984;28;20208;-76
2022/02/15 04:11:39;;;;;;;3.50;2.00;;;5.00;99.90;;;;;;5073700;28;20200;-76
2022/02/15 04:14:06;;;;;;;2.50;2.30;;;5.00;99.90;;;;;;5073359;28;20546;-76
2022/02/15 04:16:34;;;;;;;2.70;2.00;;;5.00;99.90;;;;;;5073707;28;20262;-76
2022/02/15 04:19:01;;;;;;;2.42;2.05;;;5.00;99.90;;;;;;5073584;28;20197;-75
2022/02/15 04:21:30;;;;;;;2.50;2.30;;;5.00;99.90;;;;;;5074164;28;20204;-75
2022/02/15 04:23:56;;;;;;;4.05;2.33;;;5.10;99.90;;;;;;5073101;28;20204;-76
2022/02/15 04:26:23;;;;;;;3.30;2.40;;;5.10;99.90;;;;;;5074106;28;20223;-75
2022/02/15 04:28:50;;;;;;;2.92;2.50;;;5.10;99.90;;;;;;5072850;28;20742;-73
2022/02/15 04:31:17;;;;;;;5.97;2.85;;;5.10;99.90;;;;;;5073137;28;20683;-75
2022/02/15 04:33:43;;;;;;;3.45;2.65;;;5.10;99.90;;;;;;5072026;28;20571;-75
2022/02/15 04:36:10;;;;;;;3.50;2.40;;;5.10;99.90;;;;;;5073234;28;20224;-74
2022/02/15 04:38:38;;;;;;;5.72;3.10;;;5.10;99.90;;;;;;5074248;28;20567;-73
2022/02/15 04:41:05;;;;;;;4.00;2.78;;;5.00;99.90;;;;;;5073265;28;20193;-73
2022/02/15 04:43:33;;;;;;;4.15;2.97;;;5.10;99.90;;;;;;5073187;28;20204;-76
2022/02/15 04:45:59;;;;;;;3.80;3.15;;;5.10;99.90;;;;;;5074175;28;20219;-75
2022/02/15 04:48:26;;;;;;;4.47;2.95;;;5.10;99.90;;;;;;5072106;28;20192;-75
2022/02/15 04:50:53;;;;;;;3.15;2.60;;;5.10;99.90;;;;;;5074385;28;20197;-77
2022/02/15 04:53:20;;;;;;;4.07;2.80;;;5.20;99.90;;;;;;5072045;28;20226;-75
2022/02/15 04:55:48;;;;;;;3.25;2.85;;;5.20;99.90;;;;;;5072578;28;20704;-75
2022/02/15 04:58:14;;;;;;;6.00;3.83;;;5.20;99.90;;;;;;5072247;28;20201;-76
2022/02/15 05:00:42;;;;;;;3.10;2.80;;;5.20;99.90;;;;;;5072654;28;20192;-75
2022/02/15 05:03:08;;;;;;;3.72;3.35;;;5.20;99.90;;;;;;5072656;28;20220;-74
2022/02/15 05:05:35;;;;;;;3.10;2.80;;;5.20;99.90;;;;;;5072282;28;20199;-76
2022/02/15 05:08:02;;;;;;;4.05;3.08;;;5.20;99.90;;;;;;5072222;28;20207;-75
2022/02/15 05:10:29;;;;;;;4.85;3.17;;;5.30;99.90;;;;;;5070724;28;20534;-76
2022/02/15 05:12:58;;;;;;;4.05;2.95;;;5.20;99.90;;;;;;5073405;28;20197;-75
2022/02/15 05:15:24;;;;;;;5.18;4.20;;;5.20;99.90;;;;;;5072438;28;20814;-74
2022/02/15 05:17:51;;;;;;;3.63;2.75;;;5.30;99.90;;;;;;5075877;28;20287;-75
2022/02/15 05:20:18;;;;;;;3.83;2.53;;;5.30;99.90;;;;;;5073536;28;20672;-75
2022/02/15 05:22:45;;;;;;;4.35;2.90;;;5.40;99.90;;;;;;5073307;28;20458;-75
2022/02/15 05:25:13;;;;;;;4.22;2.50;;;5.40;99.90;;;;;;5074386;28;20188;-75
2022/02/15 05:27:40;;;;;;;3.78;2.00;;;5.40;99.90;;;;;;5074260;28;20269;-75
2022/02/15 05:30:10;;;;;;;2.55;2.35;;;5.50;99.90;;;;;;5073786;28;20207;-74
2022/02/15 05:32:37;;;;;;;6.47;2.00;;;5.50;99.90;;;;;;5071669;28;20663;-74
2022/02/15 05:35:04;;;;;;;3.55;3.13;;;5.50;99.90;;;;;;5070470;28;20722;-75
2022/02/15 05:37:30;;;;;;;3.38;2.55;;;5.50;99.90;;;;;;5070761;28;20278;-75
2022/02/15 05:39:57;;;;;;;6.40;2.63;;;5.50;99.90;;;;;;5069851;28;20214;-75
2022/02/15 05:42:24;;;;;;;2.70;2.50;;;5.50;99.90;;;;;;5070019;28;20204;-77
2022/02/15 05:44:51;;;;;;;2.47;2.17;;;5.50;99.90;;;;;;5069027;28;20196;-74
2022/02/15 05:47:19;;;;;;;2.20;2.00;;;5.50;99.90;;;;;;5072852;28;20224;-75
2022/02/15 05:52:30;;;;;;;2.00;1.67;;;5.60;99.90;;;;;;5072815;28;20415;-76
2022/02/15 05:54:56;;;;;;;2.70;2.20;;;5.60;99.90;;;;;;5072897;28;20224;-75
2022/02/15 05:57:23;;;;;;;1.95;1.60;;;5.60;99.90;;;;;;5072954;28;20235;-76
2022/02/15 05:59:50;;;;;;;2.10;1.60;;;5.60;99.90;;;;;;5072553;28;20200;-77
2022/02/15 06:02:16;;;;;;;3.92;2.00;;;5.50;99.90;;;;;;5071756;28;20200;-73
2022/02/15 06:04:44;;;;;;;3.58;2.00;;;5.50;99.90;;;;;;5072579;28;20197;-74
2022/02/15 06:07:11;;;;;;;2.92;1.92;;;5.50;99.90;;;;;;5071948;28;20224;-74
2022/02/15 06:09:38;;;;;;;3.00;2.30;;;5.50;99.90;;;;;;5071887;28;20208;-75
2022/02/15 06:12:06;;;;;;;1.85;1.65;;;5.40;99.90;;;;;;5070910;28;20720;-73
2022/02/15 06:14:33;;;;;;;2.50;1.80;;;5.40;99.90;;;;;;5071592;28;20200;-75
2022/02/15 06:16:59;;;;;;;2.35;2.05;;;5.40;99.90;;;;;;5071294;28;20237;-74
2022/02/15 06:19:27;;;;;;;1.83;1.73;;;5.40;99.90;;;;;;5072002;28;20205;-75
2022/02/15 06:21:55;;;;;;;2.63;1.98;;;5.40;99.90;;;;;;5075272;28;20672;-75
2022/02/15 06:24:23;;;;;;;6.35;2.15;;;5.40;99.90;;;;;;5072126;28;20212;-75
2022/02/15 06:26:50;;;;;;;2.10;1.85;;;5.40;99.90;;;;;;5071840;28;20216;-76
2022/02/15 06:29:17;;;;;;;2.50;2.15;;;5.40;99.90;;;;;;5067123;28;20196;-73
2022/02/15 06:31:44;;;;;;;2.20;2.00;;;5.40;99.90;;;;;;5069599;28;20192;-75
2022/02/15 06:34:11;;;;;;;4.22;2.20;;;5.50;99.90;;;;;;5069494;28;20211;-73
2022/02/15 06:36:38;;;;;;;2.15;1.95;;;5.50;99.90;;;;;;5069553;28;20310;-74
2022/02/15 06:39:09;;;;;;;2.50;2.08;;;5.50;99.90;;;;;;5070288;28;20479;-75
2022/02/15 06:41:36;;;;;;;3.60;2.35;;;5.40;99.90;;;;;;5070417;28;20208;-76
2022/02/15 06:44:04;;;;;;;2.60;2.10;;;5.40;99.90;;;;;;5069197;28;20204;-75
2022/02/15 06:46:31;;;;;;;4.32;2.35;;;5.40;99.90;;;;;;5070190;28;20299;-76
2022/02/15 06:48:58;;;;;;;5.50;2.55;;;5.50;99.90;;;;;;5069109;28;20211;-75
2022/02/15 06:51:25;;;;;;;2.88;2.35;;;5.40;99.90;;;;;;5069946;28;20262;-76
2022/02/15 06:53:51;;;;;;;2.85;2.22;;;5.50;99.90;;;;;;5069093;28;20211;-74
2022/02/15 06:56:20;;;;;;;3.90;2.60;;;5.50;99.90;;;;;;5068600;28;20231;-75
2022/02/15 06:58:47;;;;;;;4.60;2.90;;;5.60;99.90;;;;;;5068874;28;20196;-75
2022/02/15 07:01:14;;;;;;;3.75;2.80;;;5.50;99.90;;;;;;5069897;28;20201;-73
2022/02/15 07:03:41;;;;;;;2.97;2.67;;;5.40;99.90;;;;;;5069395;28;20206;-75
2022/02/15 07:06:08;;;;;;;2.88;2.55;;;5.40;99.90;;;;;;5069169;28;20220;-75
2022/02/15 07:08:35;;;;;;;3.35;2.50;;;5.40;99.90;;;;;;5069394;28;20205;-75
2022/02/15 07:11:01;;;;;;;4.88;2.78;;;5.40;99.90;;;;;;5069174;28;20196;-74
2022/02/15 07:13:29;;;;;;;6.05;3.13;;;5.40;99.90;;;;;;5068992;28;20818;-75
2022/02/15 07:15:56;;;;;;;2.60;2.00;;;5.40;99.90;;;;;;5069585;28;20693;-76
2022/02/15 07:18:25;;;;;;;2.88;2.65;;;5.40;99.90;;;;;;5070254;28;20244;-74
2022/02/15 07:20:51;;;;;;;3.85;2.70;;;5.40;99.90;;;;;;5069518;28;20204;-75
2022/02/15 07:23:18;;;;;;;3.10;2.40;;;5.30;99.90;;;;;;5070164;28;20207;-75
2022/02/15 07:25:45;;;;;;;3.30;3.00;;;5.30;99.90;;;;;;5070669;28;20327;-75
2022/02/15 07:28:12;;;;;;;3.95;2.67;;;5.30;99.90;;;;;;5069913;28;20196;-74
2022/02/15 07:30:40;;;;;;;3.28;2.85;;;5.40;99.90;;;;;;5069567;28;20227;-76
2022/02/15 07:33:06;;;;;;;3.97;2.70;;;5.30;99.90;;;;;;5068879;28;20211;-76
2022/02/15 07:35:34;;;;;;;3.33;2.40;;;5.30;99.90;;;;;;5069291;28;20224;-76
2022/02/15 07:38:01;;;;;;;3.08;2.78;;;5.30;99.90;;;;;;5069348;28;20200;-75
2022/02/15 07:40:28;;;;;;;5.85;3.10;;;5.40;99.90;;;;;;5069596;28;20212;-75
2022/02/15 07:42:55;;;;;;;3.30;2.30;;;5.40;99.90;;;;;;5068659;28;20205;-76
2022/02/15 07:45:22;;;;;;;4.72;2.83;;;5.50;99.90;;;;;;5069099;28;20668;-74
2022/02/15 07:47:53;;;;;;;2.95;2.75;;;5.50;99.90;;;;;;5069393;28;20207;-74
2022/02/15 07:50:23;;;;;;;3.72;2.70;;;5.60;99.90;;;;;;5069278;28;20208;-73
2022/02/15 07:52:52;;;;;;;3.88;2.35;;;5.60;99.90;;;;;;5068566;28;20204;-73
2022/02/15 07:55:19;;;;;;;3.92;2.63;;;5.60;99.90;;;;;;5069307;28;20258;-75
2022/02/15 07:57:46;;;;;;;2.65;2.15;;;5.60;99.90;;;;;;5068683;28;20203;-73
2022/02/15 08:00:18;;;;;;;3.88;2.17;;;5.60;99.90;;;;;;5069048;28;20265;-75
2022/02/15 08:02:45;;;;;;;3.85;2.08;;;5.60;99.90;;;;;;5068324;28;20201;-74
2022/02/15 08:05:13;;;;;;;2.28;2.08;;;5.60;99.90;;;;;;5068863;28;20200;-76
2022/02/15 08:07:40;;;;;;;2.55;2.35;;;5.70;99.90;;;;;;5069547;28;20596;-75
2022/02/15 08:10:07;;;;;;;4.00;1.95;;;5.70;99.90;;;;;;5072400;28;20200;-73
2022/02/15 08:12:36;;;;;;;2.60;2.00;;;5.70;99.90;;;;;;5072728;28;20201;-76
2022/02/15 08:15:03;;;;;;;2.53;2.28;;;5.70;99.90;;;;;;5072917;28;20212;-75
2022/02/15 08:17:30;;;;;;;4.60;1.80;;;5.70;99.90;;;;;;5073034;28;20296;-75
2022/02/15 08:19:57;;;;;;;4.63;2.30;;;5.80;99.90;;;;;;5071611;28;20217;-75
2022/02/15 08:22:25;;;;;;;2.75;2.45;;;5.80;99.90;;;;;;5072291;28;20212;-75
2022/02/15 08:24:52;;;;;;;2.95;1.52;;;5.80;99.90;;;;;;5072797;28;20199;-76
2022/02/15 08:27:18;;;;;;;3.38;1.70;;;5.90;99.90;;;;;;5072812;28;20217;-76
2022/02/15 08:29:45;;;;;;;1.95;1.75;;;5.90;99.90;;;;;;5072757;28;20548;-75
2022/02/15 08:32:12;;;;;;;3.50;2.05;;;5.90;99.90;;;;;;5071999;28;20196;-77
2022/02/15 08:34:39;;;;;;;7.70;2.05;;;6.00;99.90;;;;;;5072489;28;20644;-76
2022/02/15 08:37:06;;;;;;;8.45;2.35;;;6.00;99.90;;;;;;5072521;28;20228;-76
2022/02/15 08:39:34;;;;;;;7.28;2.67;;;6.10;99.90;;;;;;5073252;28;20204;-76
2022/02/15 08:42:04;;;;;;;2.08;1.80;;;6.40;99.90;;;;;;5071968;28;20208;-74
2022/02/15 08:44:32;;;;;;;2.03;1.77;;;7.00;99.90;;;;;;5072795;28;20204;-76
2022/02/15 08:46:59;;;;;;;1.90;1.70;;;7.40;99.90;;;;;;5072391;28;20286;-76
2022/02/15 08:49:26;;;;;;;1.60;1.50;;;7.60;99.90;;;;;;5072648;28;20200;-75
2022/02/15 08:51:53;;;;;;;1.50;1.40;;;7.60;99.90;;;;;;5072809;28;20201;-76
2022/02/15 08:54:20;;;;;;;1.75;1.65;;;7.40;99.90;;;;;;5072196;28;20208;-74
2022/02/15 08:56:48;;;;;;;1.60;1.50;;;7.20;99.90;;;;;;5125112;22;20220;-96
2022/02/15 09:02:39;;;;;;;1.85;1.50;;;6.90;99.90;;;;;;5074744;22;20236;-75
2022/02/15 09:05:07;;;;;;;2.22;1.30;;;6.90;99.90;;;;;;5072322;28;20200;-76
2022/02/15 09:07:34;;;;;;;1.80;1.45;;;6.90;99.90;;;;;;5072444;28;20221;-76
2022/02/15 09:10:01;;;;;;;1.73;1.27;;;7.10;99.90;;;;;;5078153;28;20210;-74
2022/02/15 09:12:29;;;;;;;1.33;1.23;;;7.20;99.90;;;;;;5079642;28;20196;-75
2022/02/15 09:14:56;;;;;;;2.38;1.30;;;7.30;99.90;;;;;;5077569;28;20247;-75
2022/02/15 09:17:22;;;;;;;2.17;1.52;;;7.30;99.90;;;;;;5059329;28;20233;-75
2022/02/15 09:19:49;;;;;;;1.83;1.40;;;7.30;99.90;;;;;;5060372;28;20228;-76
2022/02/15 09:22:17;;;;;;;1.83;1.67;;;7.30;99.90;;;;;;5052801;28;20576;-76
2022/02/15 09:24:44;;;;;;;2.15;1.83;;;7.30;99.90;;;;;;5051427;28;20240;-76
2022/02/15 09:27:11;;;;;;;1.98;1.50;;;7.30;99.90;;;;;;5051603;28;20292;-76
2022/02/15 09:29:39;;;;;;;2.47;1.67;;;7.50;99.90;;;;;;5050311;28;20197;-76
2022/02/15 09:32:06;;;;;;;1.50;1.40;;;7.50;99.90;;;;;;5051239;28;20216;-76
2022/02/15 09:34:33;;;;;;;2.00;1.75;;;7.60;99.90;;;;;;5051055;28;20223;-74
2022/02/15 09:37:01;;;;;;;1.83;1.65;;;7.80;99.90;;;;;;5051046;28;20224;-76
2022/02/15 09:39:28;;;;;;;1.75;1.58;;;8.00;99.90;;;;;;5051389;28;20201;-76
2022/02/15 09:41:55;;;;;;;1.75;1.65;;;8.20;99.90;;;;;;5050621;28;20255;-75
2022/02/15 09:44:22;;;;;;;1.75;1.42;;;8.20;99.90;;;;;;5050429;28;20212;-76
2022/02/15 09:46:51;;;;;;;2.60;1.95;;;8.20;99.90;;;;;;5050494;28;20224;-76
2022/02/15 09:52:04;;;;;;;2.33;1.67;;;8.10;99.90;;;;;;5052365;28;20674;-75
2022/02/15 09:54:31;;;;;;;2.25;2.05;;;7.90;99.90;;;;;;5070485;28;20250;-75
2022/02/15 09:56:58;;;;;;;1.98;1.80;;;7.80;99.90;;;;;;5070823;28;20224;-74
2022/02/15 09:59:26;;;;;;;2.70;2.00;;;8.10;99.90;;;;;;5070261;28;20212;-76
2022/02/15 10:01:54;;;;;;;4.35;2.22;;;8.60;99.90;;;;;;5070666;28;20204;-76
2022/02/15 10:04:33;;;;;;;2.60;1.77;;;9.10;99.90;;;;;;5069929;28;20679;-74
2022/02/15 10:07:01;;;;;;;2.22;1.90;;;9.70;99.90;;;;;;5070618;28;20216;-76
2022/02/15 10:09:28;;;;;;;1.83;1.70;;;9.40;99.90;;;;;;5070673;28;20215;-75
2022/02/15 10:12:03;;;;;;;2.05;1.70;;;9.50;99.90;;;;;;5070625;28;20201;-75
2022/02/15 10:14:30;;;;;;;3.15;1.70;;;10.30;99.90;;;;;;5070548;28;20287;-76
2022/02/15 10:16:58;;;;;;;2.45;1.80;;;11.80;99.90;;;;;;5070257;28;20228;-76
2022/02/15 10:19:29;;;;;;;2.85;1.70;;;13.60;99.90;;;;;;5070995;28;20249;-77
2022/02/15 10:21:57;;;;;;;2.40;1.63;;;14.40;98.40;;;;;;5070808;28;20204;-76
2022/02/15 10:24:24;;;;;;;1.50;1.40;;;13.30;98.00;;;;;;5070174;28;20260;-74
2022/02/15 10:26:59;;;;;;;1.95;1.42;;;12.40;99.50;;;;;;5070238;28;20226;-76
2022/02/15 10:29:28;;;;;;;1.70;1.40;;;11.40;99.90;;;;;;5069397;28;20196;-76
2022/02/15 10:31:56;;;;;;;3.55;1.65;;;10.50;99.90;;;;;;5070218;28;20677;-76
2022/02/15 10:34:25;;;;;;;2.42;2.22;;;10.00;99.90;;;;;;5069780;28;20628;-76
2022/02/15 10:36:59;;;;;;;5.57;1.98;;;9.60;99.90;;;;;;5069516;28;20240;-75
2022/02/15 10:39:36;;;;;;;2.00;1.70;;;9.20;99.90;;;;;;5068005;28;20197;-75
2022/02/15 10:42:08;;;;;;;2.10;1.90;;;9.00;99.90;;;;;;5069431;28;20200;-73
2022/02/15 10:45:08;;;;;;;1.98;1.77;;;8.70;99.90;;;;;;5069782;28;20200;-75
2022/02/15 10:47:37;;;;;;;2.00;1.75;;;8.50;99.90;;;;;;4988132;28;20215;-76
2022/02/15 10:50:08;;;;;;;2.20;1.85;;;8.40;99.90;;;;;;5053233;28;20202;-76
2022/02/15 10:52:36;;;;;;;3.88;1.65;;;8.30;99.90;;;;;;5069346;28;20672;-74
2022/02/15 10:55:04;;;;;;;2.05;1.73;;;8.20;99.90;;;;;;5069536;28;20200;-76
2022/02/15 10:57:31;;;;;;;2.90;1.90;;;8.10;99.90;;;;;;5069419;28;20436;-76
2022/02/15 11:00:03;;;;;;;2.38;1.90;;;8.10;99.90;;;;;;5069766;28;20212;-75
2022/02/15 11:02:31;;;;;;;3.35;1.55;;;7.90;99.90;;;;;;5069299;28;20752;-75
2022/02/15 11:05:01;;;;;;;1.95;1.40;;;7.90;99.90;;;;;;5069896;28;20669;-76
2022/02/15 11:07:31;;;;;;;2.00;1.60;;;7.80;99.90;;;;;;5071115;28;20216;-76
2022/02/15 11:10:13;;;;;;;3.33;1.60;;;7.80;99.90;;;;;;5073092;28;20204;-77
2022/02/15 11:12:44;;;;;;;2.78;1.30;;;7.80;99.90;;;;;;5070155;28;20204;-77
2022/02/15 11:15:12;;;;;;;1.35;1.20;;;7.80;99.90;;;;;;5070501;28;20204;-74
2022/02/15 11:17:47;;;;;;;1.73;1.42;;;7.80;99.90;;;;;;5069865;28;20220;-77
2022/02/15 11:20:17;;;;;;;2.22;1.55;;;7.80;99.90;;;;;;5070484;28;20200;-76
2022/02/15 11:22:47;;;;;;;1.60;1.50;;;7.80;99.90;;;;;;5069817;28;20200;-77
2022/02/15 11:25:14;;;;;;;3.55;1.77;;;7.80;99.90;;;;;;5069897;28;20211;-76
2022/02/15 11:27:49;;;;;;;1.52;1.30;;;7.80;99.90;;;;;;5070001;28;20220;-76
2022/02/15 11:30:16;;;;;;;1.52;1.42;;;7.80;99.90;;;;;;5069944;28;20200;-76
2022/02/15 11:32:44;;;;;;;2.00;1.42;;;7.80;99.90;;;;;;5069657;28;20295;-77
2022/02/15 11:35:14;;;;;;;1.70;1.48;;;8.00;99.90;;;;;;5070212;28;20200;-76
2022/02/15 11:37:41;;;;;;;2.08;1.88;;;8.00;99.90;;;;;;5069558;28;20231;-77
2022/02/15 11:40:11;;;;;;;2.30;1.70;;;8.00;99.90;;;;;;5070296;28;20211;-77
2022/02/15 11:42:44;;;;;;;1.83;1.60;;;8.00;99.90;;;;;;5069493;28;20216;-77
2022/02/15 11:45:19;;;;;;;4.50;1.77;;;7.90;99.90;;;;;;5074182;28;20207;-76
2022/02/15 11:47:47;;;;;;;1.50;1.35;;;8.00;99.90;;;;;;5074127;28;20539;-76
2022/02/15 11:50:15;;;;;;;1.85;1.60;;;8.10;99.90;;;;;;5073694;28;20710;-76
2022/02/15 11:52:43;;;;;;;2.80;1.20;;;8.20;99.90;;;;;;5073870;28;20196;-74
2022/02/15 11:55:16;;;;;;;1.85;1.30;;;8.30;99.90;;;;;;5061107;28;20220;-74
2022/02/15 11:57:44;;;;;;;3.67;1.15;;;8.30;99.90;;;;;;5060025;28;20232;-77
2022/02/15 12:00:13;;;;;;;1.88;1.63;;;8.30;99.90;;;;;;5053404;28;20204;-76
2022/02/15 12:02:50;;;;;;;2.53;1.38;;;8.30;99.90;;;;;;5052117;28;20266;-77
2022/02/15 12:05:21;;;;;;;1.90;1.35;;;8.30;99.90;;;;;;5052978;28;20205;-77
2022/02/15 12:07:47;;;;;;;2.20;1.77;;;8.20;99.90;;;;;;5052733;28;20205;-77
2022/02/15 12:10:16;;;;;;;1.90;1.42;;;8.20;99.90;;;;;;5052627;28;20201;-77
2022/02/15 12:12:44;;;;;;;3.55;1.63;;;8.20;99.90;;;;;;5052286;28;20242;-77
2022/02/15 12:15:11;;;;;;;2.33;2.00;;;8.10;99.90;;;;;;5052961;28;20204;-77
2022/02/15 12:17:42;;;;;;;2.40;1.50;;;8.30;99.90;;;;;;5052475;28;20240;-75
2022/02/15 12:20:12;;;;;;;1.73;1.63;;;9.00;99.90;;;;;;5052681;28;20216;-76
2022/02/15 12:22:40;;;;;;;1.58;1.48;;;9.60;99.70;;;;;;5052666;28;20240;-77
2022/02/15 12:25:09;;;;;;;1.58;1.40;;;10.00;98.70;;;;;;5052954;28;20240;-77
2022/02/15 12:27:42;;;;;;;2.67;1.75;;;10.20;98.90;;;;;;5052871;28;20217;-77
2022/02/15 12:30:12;;;;;;;1.98;1.58;;;10.20;98.70;;;;;;5053026;28;20201;-76
2022/02/15 12:32:40;;;;;;;2.50;1.60;;;9.90;98.70;;;;;;5052381;28;20244;-77
2022/02/15 12:35:09;;;;;;;2.38;1.65;;;9.60;98.80;;;;;;5053804;28;20251;-76
2022/02/15 12:37:36;;;;;;;3.15;1.70;;;9.20;99.20;;;;;;5053567;28;20593;-77
2022/02/15 12:40:05;;;;;;;1.88;1.58;;;9.00;99.70;;;;;;5054207;28;20204;-77
2022/02/15 12:42:32;;;;;;;2.33;2.00;;;8.80;99.90;;;;;;5052726;28;20228;-76
2022/02/15 12:45:03;;;;;;;1.70;1.55;;;8.60;99.90;;;;;;5053843;28;20205;-77
2022/02/15 12:47:31;;;;;;;2.05;1.60;;;8.40;99.90;;;;;;5053139;28;20253;-77
2022/02/15 12:49:59;;;;;;;1.70;1.60;;;8.40;99.90;;;;;;5052685;28;20212;-76
2022/02/15 12:52:28;;;;;;;2.25;1.80;;;8.40;99.90;;;;;;5051726;28;20209;-74
2022/02/15 12:54:56;;;;;;;3.08;1.95;;;8.60;99.90;;;;;;5051559;28;20201;-75
2022/02/15 12:57:24;;;;;;;2.05;1.95;;;9.00;99.90;;;;;;5051637;28;20221;-74
2022/02/15 12:59:56;;;;;;;2.13;1.60;;;9.20;99.90;;;;;;5052251;28;20197;-76
2022/02/15 13:02:28;;;;;;;4.55;2.30;;;9.40;99.90;;;;;;5050901;28;20291;-76
2022/02/15 13:04:56;;;;;;;2.03;1.85;;;9.60;99.90;;;;;;5052506;28;20208;-76
2022/02/15 13:07:24;;;;;;;2.35;2.15;;;10.30;99.10;;;;;;5051190;28;20694;-74
2022/02/15 13:09:53;;;;;;;2.15;1.92;;;10.50;98.80;;;;;;5052223;28;20208;-76
2022/02/15 13:12:22;;;;;;;4.35;1.95;;;10.40;98.80;;;;;;5051636;28;20208;-76